sensor_id;sensor_type;location;lat;lon;timestamp;pressure;altitude;pressure_sealevel;temperature;humidity
57568;BME280;43403;51.948;5.922;2023-05-29T00:00:38;102308.97;;;14.08;84.03
57568;BME280;43403;51.948;5.922;2023-05-29T00:03:04;102310.25;;;14.13;81.72
57568;BME280;43403;51.948;5.922;2023-05-29T00:05:31;102317.84;;;14.07;83.43
57568;BME280;43403;51.948;5.922;2023-05-29T00:07:58;102313.09;;;14.00;82.43
57568;BME280;43403;51.948;5.922;2023-05-29T00:10:25;102318.22;;;13.92;82.14
57568;BME280;43403;51.948;5.922;2023-05-29T00:12:51;102317.50;;;13.90;82.90
57568;BME280;43403;51.948;5.922;2023-05-29T00:15:18;102320.50;;;13.85;83.28
57568;BME280;43403;51.948;5.922;2023-05-29T00:17:44;102322.31;;;13.85;82.81
57568;BME280;43403;51.948;5.922;2023-05-29T00:20:11;102331.59;;;13.79;82.74
57568;BME280;43403;51.948;5.922;2023-05-29T00:22:38;102324.19;;;13.73;84.19
57568;BME280;43403;51.948;5.922;2023-05-29T00:25:05;102336.09;;;13.68;84.54
57568;BME280;43403;51.948;5.922;2023-05-29T00:27:33;102331.22;;;13.63;83.47
57568;BME280;43403;51.948;5.922;2023-05-29T00:30:00;102339.66;;;13.57;84.45
57568;BME280;43403;51.948;5.922;2023-05-29T00:32:27;102342.94;;;13.49;84.59
57568;BME280;43403;51.948;5.922;2023-05-29T00:34:54;102336.56;;;13.52;82.94
57568;BME280;43403;51.948;5.922;2023-05-29T00:37:22;102342.41;;;13.55;81.45
57568;BME280;43403;51.948;5.922;2023-05-29T00:39:48;102341.00;;;13.51;83.91
57568;BME280;43403;51.948;5.922;2023-05-29T00:42:15;102331.69;;;13.47;82.36
57568;BME280;43403;51.948;5.922;2023-05-29T00:44:41;102340.66;;;13.44;82.37
57568;BME280;43403;51.948;5.922;2023-05-29T00:47:08;102339.13;;;13.42;82.67
57568;BME280;43403;51.948;5.922;2023-05-29T00:49:36;102343.81;;;13.38;82.33
57568;BME280;43403;51.948;5.922;2023-05-29T00:52:04;102344.44;;;13.31;82.88
57568;BME280;43403;51.948;5.922;2023-05-29T00:54:36;102337.88;;;13.25;84.15
57568;BME280;43403;51.948;5.922;2023-05-29T00:57:04;102345.31;;;13.20;83.86
57568;BME280;43403;51.948;5.922;2023-05-29T00:59:32;102343.44;;;13.11;85.79
57568;BME280;43403;51.948;5.922;2023-05-29T01:02:00;102345.25;;;13.10;83.77
57568;BME280;43403;51.948;5.922;2023-05-29T01:04:28;102353.97;;;13.11;84.06
57568;BME280;43403;51.948;5.922;2023-05-29T01:06:55;102358.28;;;13.12;84.02
57568;BME280;43403;51.948;5.922;2023-05-29T01:09:23;102358.81;;;13.05;85.20
57568;BME280;43403;51.948;5.922;2023-05-29T01:17:16;102363.84;;;12.97;84.26
57568;BME280;43403;51.948;5.922;2023-05-29T01:20:02;102366.25;;;12.89;87.16
57568;BME280;43403;51.948;5.922;2023-05-29T01:28:47;102373.81;;;12.94;86.77
57568;BME280;43403;51.948;5.922;2023-05-29T01:31:18;102372.34;;;12.90;85.57
57568;BME280;43403;51.948;5.922;2023-05-29T01:33:57;102378.13;;;12.83;86.79
57568;BME280;43403;51.948;5.922;2023-05-29T01:36:25;102372.03;;;12.83;86.42
57568;BME280;43403;51.948;5.922;2023-05-29T01:38:53;102374.44;;;12.75;87.59
57568;BME280;43403;51.948;5.922;2023-05-29T01:41:21;102370.25;;;12.72;87.92
57568;BME280;43403;51.948;5.922;2023-05-29T01:43:49;102389.75;;;12.70;88.51
57568;BME280;43403;51.948;5.922;2023-05-29T01:46:17;102386.66;;;12.64;88.77
57568;BME280;43403;51.948;5.922;2023-05-29T01:48:45;102384.97;;;12.63;88.99
57568;BME280;43403;51.948;5.922;2023-05-29T01:51:12;102384.16;;;12.63;88.16
57568;BME280;43403;51.948;5.922;2023-05-29T01:53:42;102379.00;;;12.61;89.56
57568;BME280;43403;51.948;5.922;2023-05-29T01:56:09;102378.66;;;12.55;89.90
57568;BME280;43403;51.948;5.922;2023-05-29T01:58:37;102379.16;;;12.49;89.45
57568;BME280;43403;51.948;5.922;2023-05-29T02:01:05;102377.22;;;12.51;90.46
57568;BME280;43403;51.948;5.922;2023-05-29T02:03:33;102373.88;;;12.49;91.09
57568;BME280;43403;51.948;5.922;2023-05-29T02:06:00;102374.09;;;12.45;90.21
57568;BME280;43403;51.948;5.922;2023-05-29T02:08:27;102377.69;;;12.44;89.90
57568;BME280;43403;51.948;5.922;2023-05-29T02:10:54;102369.06;;;12.42;90.60
57568;BME280;43403;51.948;5.922;2023-05-29T02:13:21;102365.72;;;12.40;90.17
57568;BME280;43403;51.948;5.922;2023-05-29T02:15:47;102371.84;;;12.41;90.28
57568;BME280;43403;51.948;5.922;2023-05-29T02:18:15;102374.59;;;12.39;90.26
57568;BME280;43403;51.948;5.922;2023-05-29T02:20:43;102378.78;;;12.42;88.56
57568;BME280;43403;51.948;5.922;2023-05-29T02:23:10;102369.94;;;12.32;91.48
57568;BME280;43403;51.948;5.922;2023-05-29T02:25:37;102375.69;;;12.25;90.05
57568;BME280;43403;51.948;5.922;2023-05-29T02:28:04;102376.63;;;12.24;90.78
57568;BME280;43403;51.948;5.922;2023-05-29T02:30:31;102385.59;;;12.22;93.15
57568;BME280;43403;51.948;5.922;2023-05-29T02:32:58;102372.19;;;12.14;93.12
57568;BME280;43403;51.948;5.922;2023-05-29T02:35:24;102374.72;;;12.15;92.51
57568;BME280;43403;51.948;5.922;2023-05-29T02:37:51;102373.97;;;12.13;93.51
57568;BME280;43403;51.948;5.922;2023-05-29T02:40:19;102372.06;;;12.04;92.62
57568;BME280;43403;51.948;5.922;2023-05-29T02:42:46;102361.78;;;12.01;94.79
57568;BME280;43403;51.948;5.922;2023-05-29T02:45:12;102358.44;;;11.99;91.95
57568;BME280;43403;51.948;5.922;2023-05-29T02:47:39;102360.81;;;11.91;94.47
57568;BME280;43403;51.948;5.922;2023-05-29T02:50:06;102369.44;;;11.93;92.88
57568;BME280;43403;51.948;5.922;2023-05-29T02:52:32;102373.50;;;11.97;94.12
57568;BME280;43403;51.948;5.922;2023-05-29T02:54:59;102375.63;;;11.92;94.78
57568;BME280;43403;51.948;5.922;2023-05-29T02:57:26;102370.50;;;11.90;94.70
57568;BME280;43403;51.948;5.922;2023-05-29T02:59:52;102369.66;;;11.90;94.42
57568;BME280;43403;51.948;5.922;2023-05-29T03:02:18;102368.53;;;11.81;95.79
57568;BME280;43403;51.948;5.922;2023-05-29T03:04:45;102375.47;;;11.82;93.69
57568;BME280;43403;51.948;5.922;2023-05-29T03:07:12;102383.59;;;11.79;95.20
57568;BME280;43403;51.948;5.922;2023-05-29T03:09:39;102394.31;;;11.76;96.70
57568;BME280;43403;51.948;5.922;2023-05-29T03:12:05;102388.13;;;11.77;95.30
57568;BME280;43403;51.948;5.922;2023-05-29T03:14:32;102389.06;;;11.76;95.12
57568;BME280;43403;51.948;5.922;2023-05-29T03:17:06;102394.31;;;11.76;95.22
57568;BME280;43403;51.948;5.922;2023-05-29T03:19:34;102388.09;;;11.65;96.55
57568;BME280;43403;51.948;5.922;2023-05-29T03:22:00;102391.69;;;11.64;95.75
57568;BME280;43403;51.948;5.922;2023-05-29T03:24:27;102392.41;;;11.66;95.88
57568;BME280;43403;51.948;5.922;2023-05-29T03:26:53;102393.59;;;11.62;95.66
57568;BME280;43403;51.948;5.922;2023-05-29T03:29:20;102392.63;;;11.63;95.37
57568;BME280;43403;51.948;5.922;2023-05-29T03:31:47;102390.97;;;11.62;96.56
57568;BME280;43403;51.948;5.922;2023-05-29T03:34:14;102392.00;;;11.60;96.83
57568;BME280;43403;51.948;5.922;2023-05-29T03:36:40;102393.69;;;11.61;97.38
57568;BME280;43403;51.948;5.922;2023-05-29T03:39:07;102390.56;;;11.56;96.06
57568;BME280;43403;51.948;5.922;2023-05-29T03:41:33;102395.09;;;11.54;97.90
57568;BME280;43403;51.948;5.922;2023-05-29T03:44:00;102383.50;;;11.45;98.33
57568;BME280;43403;51.948;5.922;2023-05-29T03:46:27;102388.75;;;11.45;96.83
57568;BME280;43403;51.948;5.922;2023-05-29T03:48:54;102383.72;;;11.42;97.09
57568;BME280;43403;51.948;5.922;2023-05-29T03:51:20;102389.78;;;11.42;96.91
57568;BME280;43403;51.948;5.922;2023-05-29T03:53:46;102398.84;;;11.38;98.04
57568;BME280;43403;51.948;5.922;2023-05-29T03:56:13;102392.41;;;11.31;99.98
57568;BME280;43403;51.948;5.922;2023-05-29T03:58:40;102402.66;;;11.34;97.99
57568;BME280;43403;51.948;5.922;2023-05-29T04:01:06;102404.97;;;11.39;97.25
57568;BME280;43403;51.948;5.922;2023-05-29T04:03:33;102399.59;;;11.40;97.73
57568;BME280;43403;51.948;5.922;2023-05-29T04:06:00;102410.09;;;11.40;97.61
57568;BME280;43403;51.948;5.922;2023-05-29T04:08:26;102402.00;;;11.43;97.36
57568;BME280;43403;51.948;5.922;2023-05-29T04:10:53;102404.28;;;11.48;96.17
57568;BME280;43403;51.948;5.922;2023-05-29T04:13:22;102409.41;;;11.50;96.39
57568;BME280;43403;51.948;5.922;2023-05-29T04:15:48;102418.53;;;11.57;93.70
57568;BME280;43403;51.948;5.922;2023-05-29T04:18:15;102417.69;;;11.56;95.44
57568;BME280;43403;51.948;5.922;2023-05-29T04:20:41;102414.00;;;11.59;93.73
57568;BME280;43403;51.948;5.922;2023-05-29T04:23:08;102420.59;;;11.64;95.52
57568;BME280;43403;51.948;5.922;2023-05-29T04:25:35;102427.63;;;11.64;94.69
57568;BME280;43403;51.948;5.922;2023-05-29T04:28:02;102409.00;;;11.67;94.18
57568;BME280;43403;51.948;5.922;2023-05-29T04:30:29;102405.56;;;11.66;95.05
57568;BME280;43403;51.948;5.922;2023-05-29T04:32:57;102409.72;;;11.69;93.55
57568;BME280;43403;51.948;5.922;2023-05-29T04:35:24;102403.03;;;11.65;94.36
57568;BME280;43403;51.948;5.922;2023-05-29T04:37:50;102403.03;;;11.65;95.03
57568;BME280;43403;51.948;5.922;2023-05-29T04:40:16;102399.78;;;11.61;94.96
57568;BME280;43403;51.948;5.922;2023-05-29T04:42:43;102404.97;;;11.74;93.36
57568;BME280;43403;51.948;5.922;2023-05-29T04:45:12;102406.75;;;11.74;93.26
57568;BME280;43403;51.948;5.922;2023-05-29T04:47:39;102415.50;;;11.74;93.13
57568;BME280;43403;51.948;5.922;2023-05-29T04:50:14;102432.81;;;11.77;91.33
57568;BME280;43403;51.948;5.922;2023-05-29T04:52:41;102446.19;;;11.74;93.44
57568;BME280;43403;51.948;5.922;2023-05-29T04:55:08;102436.16;;;11.79;92.45
57568;BME280;43403;51.948;5.922;2023-05-29T04:57:35;102443.22;;;11.78;91.69
57568;BME280;43403;51.948;5.922;2023-05-29T05:00:03;102446.06;;;11.75;91.71
57568;BME280;43403;51.948;5.922;2023-05-29T05:02:33;102445.34;;;11.73;92.05
57568;BME280;43403;51.948;5.922;2023-05-29T05:05:00;102446.78;;;11.77;90.56
57568;BME280;43403;51.948;5.922;2023-05-29T05:07:26;102444.28;;;11.76;92.61
57568;BME280;43403;51.948;5.922;2023-05-29T05:09:53;102450.59;;;11.73;92.83
57568;BME280;43403;51.948;5.922;2023-05-29T05:12:19;102448.59;;;11.77;90.99
57568;BME280;43403;51.948;5.922;2023-05-29T05:14:46;102457.19;;;11.79;92.42
57568;BME280;43403;51.948;5.922;2023-05-29T05:17:12;102459.00;;;11.78;92.63
57568;BME280;43403;51.948;5.922;2023-05-29T05:19:39;102446.91;;;11.76;90.38
57568;BME280;43403;51.948;5.922;2023-05-29T05:22:05;102449.53;;;11.76;90.07
57568;BME280;43403;51.948;5.922;2023-05-29T05:24:32;102451.22;;;11.77;90.29
57568;BME280;43403;51.948;5.922;2023-05-29T05:26:58;102455.19;;;11.82;91.38
57568;BME280;43403;51.948;5.922;2023-05-29T05:29:25;102444.06;;;11.79;91.29
57568;BME280;43403;51.948;5.922;2023-05-29T05:31:53;102462.09;;;11.83;90.36
57568;BME280;43403;51.948;5.922;2023-05-29T05:34:20;102452.44;;;11.84;88.80
57568;BME280;43403;51.948;5.922;2023-05-29T05:36:46;102443.69;;;11.83;90.17
57568;BME280;43403;51.948;5.922;2023-05-29T05:39:13;102442.50;;;11.87;88.53
57568;BME280;43403;51.948;5.922;2023-05-29T05:41:39;102447.94;;;11.97;86.88
57568;BME280;43403;51.948;5.922;2023-05-29T05:44:06;102453.34;;;11.96;87.63
57568;BME280;43403;51.948;5.922;2023-05-29T05:46:32;102459.91;;;12.01;86.83
57568;BME280;43403;51.948;5.922;2023-05-29T05:48:59;102461.72;;;12.01;87.05
57568;BME280;43403;51.948;5.922;2023-05-29T05:51:27;102458.16;;;12.02;87.27
57568;BME280;43403;51.948;5.922;2023-05-29T05:53:53;102464.59;;;12.09;86.23
57568;BME280;43403;51.948;5.922;2023-05-29T05:56:20;102467.38;;;12.07;85.19
57568;BME280;43403;51.948;5.922;2023-05-29T05:58:46;102451.59;;;12.07;85.67
57568;BME280;43403;51.948;5.922;2023-05-29T06:01:13;102464.84;;;12.06;85.81
57568;BME280;43403;51.948;5.922;2023-05-29T06:03:40;102465.56;;;12.08;86.34
57568;BME280;43403;51.948;5.922;2023-05-29T06:06:07;102471.81;;;12.18;83.80
57568;BME280;43403;51.948;5.922;2023-05-29T06:08:35;102470.25;;;12.16;84.11
57568;BME280;43403;51.948;5.922;2023-05-29T06:11:01;102460.91;;;12.23;81.26
57568;BME280;43403;51.948;5.922;2023-05-29T06:13:28;102469.91;;;12.32;82.33
57568;BME280;43403;51.948;5.922;2023-05-29T06:15:54;102460.84;;;12.36;82.18
57568;BME280;43403;51.948;5.922;2023-05-29T06:18:21;102465.97;;;12.37;80.86
57568;BME280;43403;51.948;5.922;2023-05-29T06:20:47;102470.06;;;12.41;81.70
57568;BME280;43403;51.948;5.922;2023-05-29T06:23:14;102472.31;;;12.46;80.76
57568;BME280;43403;51.948;5.922;2023-05-29T06:25:40;102484.41;;;12.49;81.18
57568;BME280;43403;51.948;5.922;2023-05-29T06:28:08;102476.16;;;12.53;79.25
57568;BME280;43403;51.948;5.922;2023-05-29T06:30:34;102476.78;;;12.57;79.51
57568;BME280;43403;51.948;5.922;2023-05-29T06:33:01;102475.69;;;12.59;79.46
57568;BME280;43403;51.948;5.922;2023-05-29T06:35:28;102470.03;;;12.64;78.77
57568;BME280;43403;51.948;5.922;2023-05-29T06:37:55;102480.97;;;12.71;79.35
57568;BME280;43403;51.948;5.922;2023-05-29T06:40:22;102484.19;;;12.74;79.06
57568;BME280;43403;51.948;5.922;2023-05-29T06:42:48;102473.78;;;12.73;77.97
57568;BME280;43403;51.948;5.922;2023-05-29T06:45:15;102479.63;;;12.76;76.95
57568;BME280;43403;51.948;5.922;2023-05-29T06:47:42;102483.94;;;12.77;76.31
57568;BME280;43403;51.948;5.922;2023-05-29T06:50:09;102478.66;;;12.77;76.12
57568;BME280;43403;51.948;5.922;2023-05-29T06:52:36;102480.09;;;12.81;74.88
57568;BME280;43403;51.948;5.922;2023-05-29T06:55:03;102479.63;;;12.88;74.17
57568;BME280;43403;51.948;5.922;2023-05-29T06:57:30;102484.53;;;12.92;75.60
57568;BME280;43403;51.948;5.922;2023-05-29T06:59:57;102477.81;;;12.99;75.26
57568;BME280;43403;51.948;5.922;2023-05-29T07:02:24;102480.69;;;13.08;74.58
57568;BME280;43403;51.948;5.922;2023-05-29T07:04:51;102483.91;;;13.11;74.87
57568;BME280;43403;51.948;5.922;2023-05-29T07:07:18;102489.91;;;13.13;73.85
57568;BME280;43403;51.948;5.922;2023-05-29T07:09:44;102494.09;;;13.16;74.18
57568;BME280;43403;51.948;5.922;2023-05-29T07:12:11;102485.91;;;13.19;73.26
57568;BME280;43403;51.948;5.922;2023-05-29T07:14:41;102495.66;;;13.30;73.43
57568;BME280;43403;51.948;5.922;2023-05-29T07:17:08;102491.81;;;13.34;73.44
57568;BME280;43403;51.948;5.922;2023-05-29T07:19:34;102489.75;;;13.37;73.45
57568;BME280;43403;51.948;5.922;2023-05-29T07:22:01;102490.47;;;13.39;73.05
57568;BME280;43403;51.948;5.922;2023-05-29T07:24:30;102501.94;;;13.50;71.44
57568;BME280;43403;51.948;5.922;2023-05-29T07:26:57;102497.84;;;13.57;69.41
57568;BME280;43403;51.948;5.922;2023-05-29T07:29:24;102499.88;;;13.64;69.79
57568;BME280;43403;51.948;5.922;2023-05-29T07:31:53;102501.16;;;13.70;69.84
57568;BME280;43403;51.948;5.922;2023-05-29T07:34:19;102512.88;;;13.77;69.69
57568;BME280;43403;51.948;5.922;2023-05-29T07:37:04;102502.78;;;13.82;69.04
57568;BME280;43403;51.948;5.922;2023-05-29T07:39:31;102498.81;;;13.88;69.15
57568;BME280;43403;51.948;5.922;2023-05-29T07:42:02;102500.94;;;13.94;68.29
57568;BME280;43403;51.948;5.922;2023-05-29T07:44:28;102505.22;;;13.95;68.35
57568;BME280;43403;51.948;5.922;2023-05-29T07:46:55;102505.69;;;14.00;68.45
57568;BME280;43403;51.948;5.922;2023-05-29T07:49:23;102501.44;;;14.09;67.83
57568;BME280;43403;51.948;5.922;2023-05-29T07:51:51;102501.19;;;14.12;67.37
57568;BME280;43403;51.948;5.922;2023-05-29T07:54:18;102509.75;;;14.26;67.23
57568;BME280;43403;51.948;5.922;2023-05-29T07:56:49;102502.03;;;14.34;67.33
57568;BME280;43403;51.948;5.922;2023-05-29T07:59:16;102509.41;;;14.40;68.13
57568;BME280;43403;51.948;5.922;2023-05-29T08:01:43;102504.72;;;14.43;69.00
57568;BME280;43403;51.948;5.922;2023-05-29T08:04:11;102510.28;;;14.50;67.44
57568;BME280;43403;51.948;5.922;2023-05-29T08:06:39;102508.59;;;14.60;66.03
57568;BME280;43403;51.948;5.922;2023-05-29T08:09:09;102515.13;;;14.66;66.16
57568;BME280;43403;51.948;5.922;2023-05-29T08:11:36;102512.13;;;14.71;66.84
57568;BME280;43403;51.948;5.922;2023-05-29T08:14:03;102510.91;;;14.85;68.08
57568;BME280;43403;51.948;5.922;2023-05-29T08:16:29;102512.31;;;14.89;66.86
57568;BME280;43403;51.948;5.922;2023-05-29T08:18:56;102509.28;;;15.03;66.46
57568;BME280;43403;51.948;5.922;2023-05-29T08:21:24;102512.41;;;15.18;66.24
57568;BME280;43403;51.948;5.922;2023-05-29T08:23:52;102517.72;;;15.28;66.46
57568;BME280;43403;51.948;5.922;2023-05-29T08:26:18;102534.56;;;15.46;65.06
57568;BME280;43403;51.948;5.922;2023-05-29T08:28:45;102524.44;;;15.61;63.75
57568;BME280;43403;51.948;5.922;2023-05-29T08:31:11;102518.06;;;15.83;63.01
57568;BME280;43403;51.948;5.922;2023-05-29T08:33:38;102512.34;;;16.07;61.70
57568;BME280;43403;51.948;5.922;2023-05-29T08:36:04;102508.56;;;16.29;61.20
57568;BME280;43403;51.948;5.922;2023-05-29T08:38:31;102511.81;;;16.60;61.37
57568;BME280;43403;51.948;5.922;2023-05-29T08:40:58;102508.53;;;16.86;59.71
57568;BME280;43403;51.948;5.922;2023-05-29T08:43:30;102507.78;;;17.22;60.00
57568;BME280;43403;51.948;5.922;2023-05-29T08:45:59;102507.41;;;17.34;57.19
57568;BME280;43403;51.948;5.922;2023-05-29T08:48:27;102514.31;;;17.63;58.34
57568;BME280;43403;51.948;5.922;2023-05-29T08:50:55;102512.13;;;17.76;56.73
57568;BME280;43403;51.948;5.922;2023-05-29T08:53:23;102512.00;;;17.96;56.04
57568;BME280;43403;51.948;5.922;2023-05-29T08:55:51;102508.25;;;18.07;54.67
57568;BME280;43403;51.948;5.922;2023-05-29T08:58:19;102518.38;;;18.29;54.26
57568;BME280;43403;51.948;5.922;2023-05-29T09:00:48;102521.16;;;18.54;53.84
57568;BME280;43403;51.948;5.922;2023-05-29T09:03:15;102511.22;;;18.82;53.37
57568;BME280;43403;51.948;5.922;2023-05-29T09:05:42;102515.09;;;19.04;52.95
57568;BME280;43403;51.948;5.922;2023-05-29T09:08:10;102513.13;;;19.14;51.75
57568;BME280;43403;51.948;5.922;2023-05-29T09:10:42;102516.34;;;19.34;51.83
57568;BME280;43403;51.948;5.922;2023-05-29T09:13:12;102519.56;;;19.54;50.91
57568;BME280;43403;51.948;5.922;2023-05-29T09:15:40;102519.56;;;19.63;50.59
57568;BME280;43403;51.948;5.922;2023-05-29T09:18:09;102511.72;;;19.69;51.74
57568;BME280;43403;51.948;5.922;2023-05-29T09:20:36;102521.25;;;19.80;51.65
57568;BME280;43403;51.948;5.922;2023-05-29T09:23:06;102508.59;;;19.90;50.38
57568;BME280;43403;51.948;5.922;2023-05-29T09:25:35;102516.56;;;20.07;50.78
57568;BME280;43403;51.948;5.922;2023-05-29T09:28:04;102511.25;;;20.07;49.52
57568;BME280;43403;51.948;5.922;2023-05-29T09:33:08;102516.53;;;20.40;49.67
57568;BME280;43403;51.948;5.922;2023-05-29T09:35:53;102512.31;;;20.53;49.82
57568;BME280;43403;51.948;5.922;2023-05-29T09:38:21;102508.66;;;20.63;49.81
57568;BME280;43403;51.948;5.922;2023-05-29T09:40:51;102516.75;;;20.78;48.46
57568;BME280;43403;51.948;5.922;2023-05-29T09:43:19;102514.06;;;20.86;48.63
57568;BME280;43403;51.948;5.922;2023-05-29T09:45:47;102512.19;;;20.94;47.69
57568;BME280;43403;51.948;5.922;2023-05-29T09:48:19;102513.44;;;21.07;47.80
57568;BME280;43403;51.948;5.922;2023-05-29T09:50:48;102515.56;;;21.20;47.72
57568;BME280;43403;51.948;5.922;2023-05-29T09:53:19;102512.41;;;21.16;46.52
57568;BME280;43403;51.948;5.922;2023-05-29T09:55:47;102502.16;;;21.28;47.32
57568;BME280;43403;51.948;5.922;2023-05-29T09:58:23;102504.44;;;21.39;47.36
57568;BME280;43403;51.948;5.922;2023-05-29T10:00:51;102501.38;;;21.50;47.44
57568;BME280;43403;51.948;5.922;2023-05-29T10:03:18;102487.16;;;21.58;47.70
57568;BME280;43403;51.948;5.922;2023-05-29T10:05:52;102500.69;;;21.71;47.10
57568;BME280;43403;51.948;5.922;2023-05-29T10:08:20;102497.31;;;21.78;47.67
57568;BME280;43403;51.948;5.922;2023-05-29T10:10:58;102497.72;;;21.89;47.08
57568;BME280;43403;51.948;5.922;2023-05-29T10:13:25;102494.03;;;21.90;46.71
57568;BME280;43403;51.948;5.922;2023-05-29T10:15:54;102491.91;;;21.86;46.21
57568;BME280;43403;51.948;5.922;2023-05-29T10:18:30;102497.91;;;21.88;47.15
57568;BME280;43403;51.948;5.922;2023-05-29T10:20:58;102491.53;;;21.89;46.88
57568;BME280;43403;51.948;5.922;2023-05-29T10:23:28;102493.59;;;22.02;46.62
57568;BME280;43403;51.948;5.922;2023-05-29T10:26:08;102491.03;;;22.08;46.48
57568;BME280;43403;51.948;5.922;2023-05-29T10:28:39;102499.16;;;22.15;46.14
57568;BME280;43403;51.948;5.922;2023-05-29T10:31:09;102494.22;;;22.27;45.63
57568;BME280;43403;51.948;5.922;2023-05-29T10:36:22;102496.69;;;22.43;45.55
57568;BME280;43403;51.948;5.922;2023-05-29T10:38:51;102504.44;;;22.53;45.67
57568;BME280;43403;51.948;5.922;2023-05-29T10:44:02;102491.31;;;22.73;45.28
57568;BME280;43403;51.948;5.922;2023-05-29T10:49:21;102489.97;;;22.99;44.80
57568;BME280;43403;51.948;5.922;2023-05-29T10:51:48;102490.09;;;23.05;44.27
57568;BME280;43403;51.948;5.922;2023-05-29T10:54:15;102488.75;;;23.16;43.69
57568;BME280;43403;51.948;5.922;2023-05-29T10:56:44;102492.06;;;23.18;43.68
57568;BME280;43403;51.948;5.922;2023-05-29T10:59:20;102474.22;;;23.04;43.86
57568;BME280;43403;51.948;5.922;2023-05-29T11:01:46;102480.31;;;22.98;44.16
57568;BME280;43403;51.948;5.922;2023-05-29T11:06:46;102480.66;;;22.95;42.98
57568;BME280;43403;51.948;5.922;2023-05-29T11:09:35;102479.03;;;22.94;43.26
57568;BME280;43403;51.948;5.922;2023-05-29T11:12:11;102478.91;;;23.02;42.38
57568;BME280;43403;51.948;5.922;2023-05-29T11:14:48;102483.72;;;23.06;41.86
57568;BME280;43403;51.948;5.922;2023-05-29T11:17:42;102472.19;;;22.91;41.62
57568;BME280;43403;51.948;5.922;2023-05-29T11:20:37;102478.34;;;23.06;43.07
57568;BME280;43403;51.948;5.922;2023-05-29T11:23:05;102483.16;;;22.96;42.26
57568;BME280;43403;51.948;5.922;2023-05-29T11:25:36;102480.75;;;23.01;42.92
57568;BME280;43403;51.948;5.922;2023-05-29T11:28:04;102469.31;;;23.07;42.51
57568;BME280;43403;51.948;5.922;2023-05-29T11:30:47;102472.16;;;23.21;43.73
57568;BME280;43403;51.948;5.922;2023-05-29T11:33:25;102467.34;;;23.38;42.24
57568;BME280;43403;51.948;5.922;2023-05-29T11:35:55;102459.19;;;23.46;41.19
57568;BME280;43403;51.948;5.922;2023-05-29T11:38:24;102465.16;;;23.48;40.54
57568;BME280;43403;51.948;5.922;2023-05-29T11:40:52;102467.34;;;23.59;41.18
57568;BME280;43403;51.948;5.922;2023-05-29T11:43:20;102469.97;;;23.53;40.56
57568;BME280;43403;51.948;5.922;2023-05-29T11:45:47;102467.09;;;23.54;40.71
57568;BME280;43403;51.948;5.922;2023-05-29T11:48:13;102453.31;;;23.57;40.72
57568;BME280;43403;51.948;5.922;2023-05-29T11:50:40;102464.47;;;23.61;41.90
57568;BME280;43403;51.948;5.922;2023-05-29T11:53:07;102461.41;;;23.64;40.98
57568;BME280;43403;51.948;5.922;2023-05-29T11:55:34;102455.41;;;23.62;40.32
57568;BME280;43403;51.948;5.922;2023-05-29T11:58:03;102456.06;;;23.64;40.66
57568;BME280;43403;51.948;5.922;2023-05-29T12:00:32;102453.41;;;23.71;40.90
57568;BME280;43403;51.948;5.922;2023-05-29T12:02:59;102456.91;;;23.71;40.86
57568;BME280;43403;51.948;5.922;2023-05-29T12:05:31;102459.28;;;23.81;40.98
57568;BME280;43403;51.948;5.922;2023-05-29T12:07:58;102452.69;;;23.83;40.76
57568;BME280;43403;51.948;5.922;2023-05-29T12:10:28;102451.69;;;23.84;40.94
57568;BME280;43403;51.948;5.922;2023-05-29T12:13:00;102459.78;;;23.91;40.71
57568;BME280;43403;51.948;5.922;2023-05-29T12:15:29;102455.66;;;23.95;40.84
57568;BME280;43403;51.948;5.922;2023-05-29T12:17:56;102460.22;;;23.95;41.19
57568;BME280;43403;51.948;5.922;2023-05-29T12:20:24;102456.09;;;23.92;40.09
57568;BME280;43403;51.948;5.922;2023-05-29T12:22:59;102458.41;;;24.02;40.41
57568;BME280;43403;51.948;5.922;2023-05-29T12:25:27;102454.31;;;24.06;39.96
57568;BME280;43403;51.948;5.922;2023-05-29T12:27:57;102450.84;;;24.12;40.00
57568;BME280;43403;51.948;5.922;2023-05-29T12:30:24;102455.22;;;24.20;39.93
57568;BME280;43403;51.948;5.922;2023-05-29T12:32:59;102448.69;;;24.36;39.60
57568;BME280;43403;51.948;5.922;2023-05-29T12:35:28;102457.56;;;24.36;39.24
57568;BME280;43403;51.948;5.922;2023-05-29T12:38:04;102449.31;;;24.31;39.45
57568;BME280;43403;51.948;5.922;2023-05-29T12:40:32;102443.16;;;24.44;39.02
57568;BME280;43403;51.948;5.922;2023-05-29T12:43:07;102443.16;;;24.44;38.80
57568;BME280;43403;51.948;5.922;2023-05-29T12:45:37;102456.03;;;24.55;38.80
57568;BME280;43403;51.948;5.922;2023-05-29T12:48:05;102439.31;;;24.60;38.91
57568;BME280;43403;51.948;5.922;2023-05-29T12:50:37;102452.16;;;24.71;38.98
57568;BME280;43403;51.948;5.922;2023-05-29T12:53:12;102439.56;;;24.72;38.54
57568;BME280;43403;51.948;5.922;2023-05-29T12:55:42;102444.28;;;24.56;39.02
57568;BME280;43403;51.948;5.922;2023-05-29T12:58:10;102452.25;;;24.43;38.85
57568;BME280;43403;51.948;5.922;2023-05-29T13:00:39;102448.75;;;24.49;39.98
57568;BME280;43403;51.948;5.922;2023-05-29T13:03:07;102439.03;;;24.48;39.67
57568;BME280;43403;51.948;5.922;2023-05-29T13:05:34;102440.56;;;24.57;40.47
57568;BME280;43403;51.948;5.922;2023-05-29T13:08:01;102434.38;;;24.57;38.88
57568;BME280;43403;51.948;5.922;2023-05-29T13:10:27;102450.31;;;24.72;38.83
57568;BME280;43403;51.948;5.922;2023-05-29T13:12:54;102445.78;;;24.79;38.42
57568;BME280;43403;51.948;5.922;2023-05-29T13:15:22;102441.44;;;24.71;37.27
57568;BME280;43403;51.948;5.922;2023-05-29T13:17:49;102446.38;;;24.61;37.59
57568;BME280;43403;51.948;5.922;2023-05-29T13:20:17;102448.81;;;24.56;36.85